Time;durP1;ratioP1;P1;durP2;ratioP2;P2;SDS_P1;SDS_P2;PMS_P1;PMS_P2;Temp;Humidity;BMP_temperature;BMP_pressure;BME280_temperature;BME280_humidity;BME280_pressure;Samples;Min_cycle;Max_cycle;Signal;HPM_P1;HPM_P2
2022/05/02 00:00:59;;;;;;;39.25;22.00;;;;;;;16.65;35.35;100844.45;1647320;85;22233;-57
2022/05/02 00:03:27;;;;;;;41.37;23.10;;;;;;;16.61;35.36;100839.31;1671123;83;21115;-63
2022/05/02 00:05:56;;;;;;;40.43;20.85;;;;;;;16.53;35.43;100840.35;1671246;85;21611;-61
2022/05/02 00:08:23;;;;;;;35.52;20.77;;;;;;;16.56;35.39;100841.26;1671837;85;21129;-61
2022/05/02 00:10:50;;;;;;;37.03;20.45;;;;;;;16.45;35.56;100838.76;1671717;85;21146;-58
2022/05/02 00:13:19;;;;;;;34.75;17.48;;;;;;;16.36;35.56;100836.55;1671140;85;20976;-60
2022/05/02 00:15:48;;;;;;;33.13;18.57;;;;;;;16.39;35.45;100837.45;1671849;85;21066;-56
2022/05/02 00:18:15;;;;;;;35.10;18.92;;;;;;;16.29;35.70;100839.22;1671129;85;21085;-57
2022/05/02 00:20:42;;;;;;;35.25;19.75;;;;;;;16.16;35.92;100837.41;1661410;85;21110;-57
2022/05/02 00:23:10;;;;;;;41.33;18.42;;;;;;;16.23;35.95;100840.83;1671571;85;21016;-58
2022/05/02 00:25:39;;;;;;;31.80;18.62;;;;;;;16.29;35.95;100837.91;1671306;85;21302;-57
2022/05/02 00:28:13;;;;;;;35.17;20.85;;;;;;;16.50;35.66;100833.67;1671828;85;21269;-62
2022/05/02 00:30:41;;;;;;;35.78;21.17;;;;;;;16.39;35.79;100836.94;1671387;85;21066;-58
2022/05/02 00:33:08;;;;;;;37.67;21.52;;;;;;;16.62;35.33;100832.52;1671627;85;21109;-57
2022/05/02 00:35:36;;;;;;;41.28;23.47;;;;;;;16.60;35.30;100834.56;1671639;85;20996;-57
2022/05/02 00:38:05;;;;;;;37.85;20.45;;;;;;;16.37;35.55;100832.92;1671885;85;21086;-57
2022/05/02 00:40:33;;;;;;;40.95;22.95;;;;;;;16.46;35.56;100831.16;1671474;85;21149;-63
2022/05/02 00:43:01;;;;;;;36.20;21.52;;;;;;;16.41;35.61;100834.13;1672496;85;21259;-55
2022/05/02 00:45:29;;;;;;;41.48;21.37;;;;;;;16.45;35.59;100831.38;1672462;85;21079;-57
2022/05/02 00:47:58;;;;;;;32.67;19.42;;;;;;;16.47;35.55;100841.17;1672259;85;21079;-56
2022/05/02 00:50:38;;;;;;;43.02;24.27;;;;;;;16.43;35.72;100836.02;1671558;85;21111;-63
2022/05/02 00:53:09;;;;;;;44.83;23.25;;;;;;;16.58;35.45;100835.27;1672515;85;21229;-55
2022/05/02 00:55:37;;;;;;;42.20;22.10;;;;;;;16.37;35.71;100832.41;1672237;85;21079;-56
2022/05/02 00:58:05;;;;;;;36.63;22.22;;;;;;;16.52;35.55;100832.16;1672256;85;21521;-56
2022/05/02 01:00:33;;;;;;;39.42;21.10;;;;;;;16.62;35.40;100829.87;1670990;85;21580;-62
2022/05/02 01:03:01;;;;;;;39.00;21.87;;;;;;;16.48;35.53;100825.70;1671834;85;21576;-56
2022/05/02 01:05:28;;;;;;;41.50;22.05;;;;;;;16.49;35.49;100827.31;1700449;83;21227;-58
2022/05/02 01:07:56;;;;;;;39.63;23.57;;;;;;;16.45;35.59;100832.69;1703139;82;21009;-58
2022/05/02 01:10:24;;;;;;;43.73;23.62;;;;;;;16.47;35.50;100826.19;1702027;82;21005;-56
2022/05/02 01:12:53;;;;;;;36.88;21.60;;;;;;;16.40;35.67;100829.85;1703929;84;21048;-56
2022/05/02 01:15:20;;;;;;;39.42;22.15;;;;;;;16.35;35.74;100829.67;1703526;84;21143;-57
2022/05/02 01:17:47;;;;;;;40.03;22.25;;;;;;;16.15;35.97;100829.22;1703615;84;21246;-55
2022/05/02 01:20:15;;;;;;;39.50;22.17;;;;;;;16.14;36.04;100830.24;1702348;84;21096;-59
2022/05/02 01:22:43;;;;;;;42.58;22.22;;;;;;;16.11;36.17;100831.96;1692666;84;21191;-55
2022/05/02 01:25:10;;;;;;;44.27;22.40;;;;;;;15.90;36.31;100832.18;1703704;84;21612;-56
2022/05/02 01:27:37;;;;;;;41.65;22.10;;;;;;;15.94;36.46;100836.82;1703632;84;21021;-56
2022/05/02 01:30:06;;;;;;;41.63;22.80;;;;;;;15.95;36.60;100838.97;1702072;84;21143;-55
2022/05/02 01:32:33;;;;;;;39.23;21.90;;;;;;;15.99;36.52;100833.09;1703486;82;22073;-56
2022/05/02 01:35:00;;;;;;;38.40;22.32;;;;;;;15.78;36.67;100838.05;1703166;84;21691;-56
2022/05/02 01:37:28;;;;;;;37.83;19.70;;;;;;;15.70;36.94;100842.71;1703603;84;21567;-57
2022/05/02 01:39:55;;;;;;;35.38;18.55;;;;;;;15.76;36.81;100842.72;1702522;84;21024;-64
2022/05/02 01:42:22;;;;;;;35.43;20.08;;;;;;;15.75;36.75;100837.14;1702902;84;22108;-56
2022/05/02 01:44:50;;;;;;;40.80;19.98;;;;;;;15.55;36.87;100843.68;1703286;82;20994;-57
2022/05/02 01:47:17;;;;;;;31.50;18.57;;;;;;;15.43;36.95;100847.11;1703167;84;21621;-57
2022/05/02 01:49:45;;;;;;;33.02;17.77;;;;;;;15.43;37.08;100841.34;1703471;84;21108;-66
2022/05/02 01:52:12;;;;;;;32.80;18.30;;;;;;;15.23;37.29;100847.89;1703205;84;21045;-59
2022/05/02 01:54:39;;;;;;;30.52;16.35;;;;;;;15.40;37.00;100845.69;1703288;84;21144;-59
2022/05/02 01:57:07;;;;;;;35.45;18.42;;;;;;;15.33;37.09;100850.92;1703359;82;21096;-57
2022/05/02 01:59:34;;;;;;;34.13;18.12;;;;;;;15.22;37.28;100848.88;1703015;84;21061;-57
2022/05/02 02:02:01;;;;;;;33.10;17.02;;;;;;;15.11;37.52;100848.65;1702434;84;21645;-59
2022/05/02 02:07:16;;;;;;;35.28;17.50;;;;;;;15.12;37.70;100848.47;1713413;83;21262;-58
2022/05/02 02:09:43;;;;;;;29.82;16.30;;;;;;;15.11;37.85;100846.83;1701432;83;21297;-56
2022/05/02 02:12:11;;;;;;;36.75;16.77;;;;;;;15.01;38.01;100844.59;1712785;83;21116;-56
2022/05/02 02:14:38;;;;;;;35.08;17.52;;;;;;;14.87;38.41;100843.44;1713562;83;21521;-56
2022/05/02 02:17:05;;;;;;;32.25;16.93;;;;;;;14.81;38.54;100847.16;1713095;82;21566;-58
2022/05/02 02:19:32;;;;;;;31.93;16.65;;;;;;;14.71;38.84;100844.59;1712791;83;21175;-56
2022/05/02 02:22:16;;;;;;;27.62;15.65;;;;;;;14.79;38.91;100846.53;1713417;83;21274;-56
2022/05/02 02:24:28;;;;;;;35.75;18.50;;;;;;;14.79;39.07;100851.78;1709678;83;21035;-58
2022/05/02 02:26:56;;;;;;;37.20;18.65;;;;;;;14.75;39.19;100850.56;1713335;83;21466;-56
2022/05/02 02:29:23;;;;;;;38.60;20.12;;;;;;;14.71;39.15;100849.33;1713116;83;21099;-63
2022/05/02 02:31:50;;;;;;;35.25;20.20;;;;;;;14.68;39.23;100845.78;1712714;83;21658;-57
2022/05/02 02:34:18;;;;;;;42.95;22.05;;;;;;;14.62;39.38;100851.80;1713097;83;20954;-56
2022/05/02 02:36:46;;;;;;;41.83;22.10;;;;;;;14.64;39.32;100852.94;1712740;83;21522;-56
2022/05/02 02:39:14;;;;;;;40.70;23.75;;;;;;;14.74;39.13;100852.88;1713280;83;22442;-57
2022/05/02 02:41:42;;;;;;;43.10;22.93;;;;;;;14.96;38.70;100852.74;1701767;82;21703;-59
2022/05/02 02:44:09;;;;;;;43.20;22.35;;;;;;;15.02;38.41;100851.97;1713402;82;21365;-55
2022/05/02 02:46:36;;;;;;;38.00;22.55;;;;;;;15.08;37.93;100851.19;1713226;83;21061;-64
2022/05/02 02:49:03;;;;;;;41.48;22.05;;;;;;;15.26;37.60;100852.72;1713490;83;22163;-55
2022/05/02 02:51:31;;;;;;;38.95;21.65;;;;;;;15.32;37.50;100857.19;1712631;83;21077;-56
2022/05/02 02:53:58;;;;;;;33.98;18.25;;;;;;;15.34;37.40;100854.35;1713294;83;21353;-58
2022/05/02 02:56:26;;;;;;;37.98;20.30;;;;;;;15.36;37.18;100854.17;1713271;83;21246;-56
2022/05/02 02:58:53;;;;;;;38.95;21.25;;;;;;;15.47;36.79;100848.33;1713212;83;21062;-59
2022/05/02 03:01:20;;;;;;;35.92;19.20;;;;;;;15.56;36.83;100852.37;1713372;83;21080;-58
2022/05/02 03:03:47;;;;;;;37.23;19.82;;;;;;;15.79;36.58;100850.17;1713262;83;21106;-57
2022/05/02 03:06:15;;;;;;;41.35;21.00;;;;;;;15.70;36.63;100856.66;1713413;83;21577;-58
2022/05/02 03:08:44;;;;;;;37.67;21.33;;;;;;;15.57;36.98;100857.95;1701976;83;21247;-64
2022/05/02 03:11:11;;;;;;;37.90;19.98;;;;;;;15.64;37.03;100854.80;1713350;83;21937;-63
2022/05/02 03:13:38;;;;;;;35.80;20.45;;;;;;;15.65;37.10;100861.72;1713469;83;21088;-58
2022/05/02 03:16:05;;;;;;;36.58;22.50;;;;;;;15.65;37.09;100863.03;1713691;83;21020;-56
2022/05/02 03:18:34;;;;;;;40.58;22.42;;;;;;;15.74;36.87;100867.07;1713401;82;21105;-58
2022/05/02 03:21:01;;;;;;;42.90;21.93;;;;;;;15.88;36.78;100869.20;1713439;83;21168;-58
2022/05/02 03:23:30;;;;;;;40.90;23.70;;;;;;;16.05;36.44;100869.08;1712905;83;21022;-62
2022/05/02 03:25:57;;;;;;;40.70;22.05;;;;;;;16.15;36.56;100871.81;1713519;83;21071;-57
2022/05/02 03:28:25;;;;;;;39.05;20.90;;;;;;;16.38;36.78;100872.17;1713682;83;21075;-57
2022/05/02 03:30:54;;;;;;;38.50;22.27;;;;;;;17.06;35.89;100873.07;1712844;82;21604;-59
2022/05/02 03:33:21;;;;;;;39.07;22.43;;;;;;;17.35;35.27;100878.28;1713206;83;21899;-62
2022/05/02 03:35:48;;;;;;;36.67;22.50;;;;;;;17.54;35.08;100877.86;1713065;82;21403;-57
2022/05/02 03:38:15;;;;;;;41.90;23.97;;;;;;;18.33;34.66;100871.61;1713648;83;21818;-56
2022/05/02 03:40:42;;;;;;;39.00;22.93;;;;;;;19.18;33.50;100869.80;1702594;83;21382;-55
2022/05/02 03:43:09;;;;;;;38.30;22.67;;;;;;;19.64;32.63;100870.17;1713065;83;21186;-56
2022/05/02 03:45:37;;;;;;;35.83;21.23;;;;;;;19.57;31.61;100872.08;1713610;83;21737;-63
2022/05/02 03:48:05;;;;;;;33.60;19.87;;;;;;;19.16;31.61;100875.81;1713279;83;21465;-55
2022/05/02 03:50:34;;;;;;;34.50;20.07;;;;;;;19.16;31.61;100875.81;1713737;83;22778;-56
2022/05/02 03:53:01;;;;;;;31.53;19.00;;;;;;;18.94;31.90;100876.84;1713929;83;21454;-63
2022/05/02 03:55:28;;;;;;;29.93;18.10;;;;;;;18.88;32.37;100874.27;1713055;83;21599;-58
2022/05/02 03:57:56;;;;;;;30.90;17.97;;;;;;;18.88;32.37;100874.27;1713421;83;22161;-56
2022/05/02 04:00:23;;;;;;;26.63;16.87;;;;;;;18.82;32.38;100880.44;1713548;83;21602;-55
2022/05/02 04:02:51;;;;;;;30.37;16.53;;;;;;;18.74;32.53;100876.78;1713970;83;21275;-57
2022/05/02 04:05:18;;;;;;;33.83;18.80;;;;;;;18.54;32.91;100879.11;1706279;83;21341;-57
2022/05/02 04:07:45;;;;;;;32.33;17.93;;;;;;;18.62;33.11;100872.72;1702175;83;21967;-56
2022/05/02 04:10:13;;;;;;;31.70;16.50;;;;;;;18.44;33.69;100877.48;1703292;82;21811;-58
2022/05/02 04:12:42;;;;;;;30.20;16.80;;;;;;;18.17;34.48;100886.98;1703061;84;21724;-57
2022/05/02 04:15:09;;;;;;;35.77;17.97;;;;;;;18.14;35.28;100887.94;1702472;84;21367;-61
2022/05/02 04:17:38;;;;;;;35.53;18.67;;;;;;;18.35;35.16;100896.77;1702386;84;22231;-57
2022/05/02 04:20:06;;;;;;;37.80;20.17;;;;;;;18.35;34.97;100895.97;1703096;82;22011;-55
2022/05/02 04:22:35;;;;;;;31.73;17.77;;;;;;;18.21;35.01;100897.91;1703125;84;21357;-57
2022/05/02 04:25:02;;;;;;;37.93;20.10;;;;;;;18.03;35.28;100903.95;1703242;84;21922;-55
2022/05/02 04:27:30;;;;;;;35.50;19.47;;;;;;;17.70;35.64;100907.65;1702131;84;21374;-63
2022/05/02 04:29:57;;;;;;;40.47;19.67;;;;;;;17.73;35.83;100901.15;1703362;82;21676;-58
2022/05/02 04:32:26;;;;;;;38.20;20.20;;;;;;;17.63;36.27;100910.03;1703549;84;21322;-58
2022/05/02 04:34:55;;;;;;;38.17;19.67;;;;;;;17.69;36.31;100907.36;1703717;84;21344;-57
2022/05/02 04:37:22;;;;;;;37.83;19.77;;;;;;;17.72;36.22;100906.91;1703631;84;21765;-63
2022/05/02 04:39:49;;;;;;;43.23;20.27;;;;;;;17.73;36.13;100914.33;1702997;84;21171;-57
2022/05/02 04:42:18;;;;;;;41.23;19.57;;;;;;;17.83;35.72;100909.40;1703453;84;21643;-57
2022/05/02 04:44:45;;;;;;;39.83;21.40;;;;;;;17.78;35.78;100911.08;1703466;82;21126;-58
2022/05/02 04:47:12;;;;;;;38.30;21.90;;;;;;;17.82;35.89;100910.43;1703915;84;21181;-59
2022/05/02 04:49:40;;;;;;;50.37;22.63;;;;;;;17.81;36.49;100915.93;1702307;84;21984;-64
2022/05/02 04:52:07;;;;;;;50.20;22.97;;;;;;;18.02;36.10;100910.27;1702937;84;21393;-57
2022/05/02 04:54:35;;;;;;;48.13;23.90;;;;;;;18.28;35.11;100910.54;1703254;84;21398;-57
2022/05/02 04:57:03;;;;;;;46.37;23.70;;;;;;;18.33;34.83;100916.48;1703175;82;21235;-56
2022/05/02 04:59:30;;;;;;;53.17;24.60;;;;;;;18.30;34.86;100911.14;1702521;84;22769;-58
2022/05/02 05:01:58;;;;;;;47.47;23.03;;;;;;;18.34;35.00;100915.48;1702573;82;21216;-64
2022/05/02 05:04:26;;;;;;;50.93;23.10;;;;;;;18.32;34.64;100915.67;1702816;84;21638;-59
2022/05/02 05:06:53;;;;;;;43.83;23.40;;;;;;;18.61;34.52;100912.84;1703728;83;21199;-59
2022/05/02 05:09:20;;;;;;;40.67;22.33;;;;;;;18.70;34.35;100910.23;1702912;84;21340;-59
2022/05/02 05:12:12;;;;;;;41.60;20.63;;;;;;;18.87;34.12;100908.33;1702397;84;21615;-57
2022/05/02 05:18:19;;;;;;;35.00;17.93;;;;;;;18.87;33.48;100918.89;1703314;84;21314;-57
2022/05/02 05:20:55;;;;;;;34.77;17.70;;;;;;;18.81;33.15;100909.20;1702684;84;22488;-63
2022/05/02 05:23:45;;;;;;;39.20;17.97;;;;;;;18.85;32.73;100907.21;1702992;84;21346;-58
2022/05/02 05:26:29;;;;;;;37.33;18.87;;;;;;;18.91;33.14;100910.30;1701395;82;21809;-57
2022/05/02 05:29:33;;;;;;;37.77;18.97;;;;;;;18.78;33.30;100910.44;1702649;83;21753;-56
2022/05/02 05:32:21;;;;;;;37.40;18.80;;;;;;;18.86;33.17;100914.62;1701636;83;21412;-57
2022/05/02 05:35:08;;;;;;;39.47;19.57;;;;;;;18.83;33.35;100918.53;1701976;84;21193;-57
2022/05/02 05:38:01;;;;;;;37.70;20.17;;;;;;;18.74;33.84;100920.36;1702507;84;21342;-57
2022/05/02 05:40:39;;;;;;;39.70;20.73;;;;;;;18.81;33.83;100921.09;1627862;86;22306;-58
2022/05/02 05:43:51;;;;;;;39.53;20.53;;;;;;;18.83;33.77;100919.85;1605445;86;21465;-58
2022/05/02 05:46:45;;;;;;;44.80;22.30;;;;;;;19.06;33.78;100924.45;1686150;82;21376;-61
2022/05/02 05:49:43;;;;;;;41.17;18.87;;;;;;;18.92;33.85;100922.99;1702622;84;21101;-64
2022/05/02 05:52:25;;;;;;;46.00;22.27;;;;;;;19.02;33.71;100927.25;1703194;84;21401;-58
2022/05/02 05:55:05;;;;;;;46.05;22.90;;;;;;;19.05;34.01;100925.45;1703196;82;24237;-56
2022/05/02 05:57:59;;;;;;;41.33;20.95;;;;;;;19.11;34.28;100925.09;1702959;84;21139;-58
2022/05/02 06:00:28;;;;;;;42.17;21.83;;;;;;;19.04;34.26;100929.14;1702668;83;21104;-60
2022/05/02 06:03:09;;;;;;;47.50;23.43;;;;;;;19.09;33.98;100926.66;1661403;84;21460;-57
2022/05/02 06:05:43;;;;;;;47.67;23.10;;;;;;;19.00;34.40;100931.13;1702902;82;21261;-66
2022/05/02 06:08:13;;;;;;;43.53;21.70;;;;;;;19.04;34.21;100935.73;1702302;82;21388;-58
2022/05/02 06:10:40;;;;;;;46.73;21.97;;;;;;;19.10;33.85;100936.19;1701668;83;21316;-58
2022/05/02 06:13:08;;;;;;;38.37;20.70;;;;;;;19.29;34.01;100936.16;1702959;84;21745;-60
2022/05/02 06:18:28;;;;;;;41.47;19.57;;;;;;;19.29;33.45;100936.95;1702295;82;21300;-57
2022/05/02 06:21:04;;;;;;;42.97;19.23;;;;;;;19.23;33.88;100939.16;1703176;84;21348;-58
2022/05/02 06:23:37;;;;;;;45.60;20.53;;;;;;;19.40;33.54;100934.08;1703274;82;22650;-58
2022/05/02 06:26:04;;;;;;;42.65;21.77;;;;;;;19.45;33.41;100931.03;1696142;84;21362;-59
2022/05/02 06:28:33;;;;;;;43.67;21.40;;;;;;;19.41;33.53;100927.75;1703146;82;21080;-59
2022/05/02 06:31:00;;;;;;;40.27;21.63;;;;;;;19.40;33.45;100927.46;1702908;84;21383;-66
2022/05/02 06:33:28;;;;;;;44.20;21.77;;;;;;;19.30;33.71;100931.95;1703220;82;21656;-58
2022/05/02 06:36:09;;;;;;;47.97;22.17;;;;;;;19.43;33.63;100928.31;1684758;84;21259;-65
2022/05/02 06:39:06;;;;;;;48.63;23.13;;;;;;;19.47;33.52;100932.64;1691867;83;21936;-64
2022/05/02 06:41:59;;;;;;;41.07;21.70;;;;;;;19.33;33.12;100934.67;1702195;82;21574;-58
2022/05/02 06:44:55;;;;;;;38.60;20.33;;;;;;;19.22;33.11;100932.27;1703275;84;21951;-58
2022/05/02 06:48:00;;;;;;;42.87;20.97;;;;;;;19.31;33.07;100930.11;1702617;83;21523;-58
2022/05/02 06:50:29;;;;;;;45.40;22.50;;;;;;;19.49;32.53;100923.45;1702308;84;21461;-58
2022/05/02 06:53:18;;;;;;;48.17;24.80;;;;;;;19.49;32.53;100923.45;1703140;84;21520;-57
2022/05/02 06:56:29;;;;;;;48.77;23.40;;;;;;;19.64;32.22;100923.88;1692604;84;21116;-56
2022/05/02 06:59:04;;;;;;;47.00;22.50;;;;;;;19.74;32.07;100925.17;1684824;84;22337;-57
2022/05/02 07:01:53;;;;;;;42.20;22.03;;;;;;;19.84;32.15;100928.05;1702515;84;21328;-57
2022/05/02 07:04:31;;;;;;;43.10;20.43;;;;;;;20.15;31.81;100926.92;1703032;82;21569;-57
2022/05/02 07:07:27;;;;;;;43.80;22.50;;;;;;;20.32;31.53;100931.02;1704810;83;21755;-56
2022/05/02 07:10:08;;;;;;;45.00;23.27;;;;;;;20.43;31.71;100921.47;1713801;83;22828;-57
2022/05/02 07:12:41;;;;;;;;;;;;;;;20.43;31.71;100921.47;1716002;83;21683;-57
2022/05/02 07:15:44;;;;;;;47.27;24.13;;;;;;;20.53;31.32;100923.85;1711976;83;20781;-58
2022/05/02 07:18:43;;;;;;;44.23;23.07;;;;;;;20.61;31.44;100922.16;1713566;83;21844;-56
2022/05/02 07:21:30;;;;;;;39.33;22.67;;;;;;;21.03;31.34;100919.28;1712738;82;21708;-57
2022/05/02 07:24:20;;;;;;;39.00;21.90;;;;;;;21.11;31.00;100920.76;1710997;82;22336;-64
2022/05/02 07:27:04;;;;;;;39.83;19.80;;;;;;;21.48;30.55;100919.05;1713143;83;21834;-58
2022/05/02 07:29:33;;;;;;;43.00;19.20;;;;;;;21.76;30.20;100919.53;1713166;83;21779;-62
2022/05/02 07:32:02;;;;;;;34.60;17.57;;;;;;;22.44;29.51;100911.00;1713268;83;21024;-56
2022/05/02 07:34:30;;;;;;;34.60;18.07;;;;;;;22.44;29.51;100911.00;1712697;82;21377;-57
2022/05/02 07:36:57;;;;;;;24.07;14.87;;;;;;;22.82;29.47;100912.80;1713561;83;21135;-59
2022/05/02 07:39:24;;;;;;;20.57;11.70;;;;;;;23.33;28.96;100906.70;1713360;83;21546;-58
2022/05/02 07:41:51;;;;;;;21.50;12.43;;;;;;;23.88;27.85;100910.92;1713169;82;21870;-56
2022/05/02 07:44:20;;;;;;;26.83;14.17;;;;;;;24.33;27.34;100901.62;1713440;82;21084;-60
2022/05/02 07:46:49;;;;;;;17.80;10.10;;;;;;;24.50;26.76;100899.58;1712708;82;21104;-55
2022/05/02 07:49:23;;;;;;;16.10;8.37;;;;;;;24.78;26.42;100896.24;1666659;83;21079;-56
2022/05/02 07:51:51;;;;;;;12.47;7.70;;;;;;;25.23;25.77;100890.77;1703539;83;21099;-55
2022/05/02 07:54:26;;;;;;;9.37;4.90;;;;;;;25.58;25.10;100891.85;1713447;83;21575;-60
2022/05/02 07:57:02;;;;;;;7.67;3.33;;;;;;;26.15;23.51;100888.06;1713394;83;21083;-56
2022/05/02 07:59:36;;;;;;;5.97;1.90;;;;;;;26.80;23.51;100884.87;1713081;82;21048;-55
2022/05/02 08:02:04;;;;;;;5.73;1.40;;;;;;;27.78;21.24;100869.73;1713041;83;21619;-58
2022/05/02 08:04:34;;;;;;;2.43;1.23;;;;;;;28.37;20.65;100870.44;1713702;83;21020;-58
2022/05/02 08:07:11;;;;;;;4.67;1.77;;;;;;;28.90;20.06;100866.78;1712364;83;21916;-54
2022/05/02 08:10:04;;;;;;;6.80;1.70;;;;;;;29.43;19.22;100869.20;1691283;84;21895;-55
2022/05/02 08:12:40;;;;;;;3.07;1.53;;;;;;;29.50;18.64;100866.94;1703252;82;21508;-55
2022/05/02 08:15:40;;;;;;;3.53;1.83;;;;;;;29.37;18.18;100869.05;1702783;84;21033;-56
2022/05/02 08:18:52;;;;;;;2.50;1.43;;;;;;;29.72;17.17;100869.80;1703296;84;21170;-56
2022/05/02 08:21:38;;;;;;;2.90;1.40;;;;;;;29.99;17.23;100865.53;1703214;82;21249;-57
2022/05/02 08:27:47;;;;;;;6.80;1.57;;;;;;;30.66;16.52;100861.76;1696252;83;21598;-57
2022/05/02 08:30:24;;;;;;;4.87;1.33;;;;;;;30.87;16.69;100859.41;1703025;82;21765;-64
2022/05/02 08:33:06;;;;;;;3.90;1.67;;;;;;;31.25;16.47;100855.01;1694345;82;21850;-59
2022/05/02 08:35:58;;;;;;;3.10;1.50;;;;;;;31.58;16.41;100852.86;1703385;82;21568;-57
2022/05/02 08:38:49;;;;;;;4.70;1.40;;;;;;;32.15;15.81;100851.58;1703182;84;21596;-57
2022/05/02 08:41:36;;;;;;;2.80;1.40;;;;;;;32.46;15.65;100850.71;1703207;82;21096;-63
2022/05/02 08:44:20;;;;;;;2.90;1.40;;;;;;;32.69;15.05;100844.61;1695709;82;21691;-55
2022/05/02 08:47:20;;;;;;;2.27;1.30;;;;;;;32.74;15.09;100840.98;1703233;84;21049;-58
2022/05/02 08:50:11;;;;;;;3.93;1.50;;;;;;;32.29;15.50;100837.19;1687633;84;21271;-62
2022/05/02 08:53:02;;;;;;;2.17;1.20;;;;;;;32.41;15.84;100838.17;1702618;83;21077;-55
2022/05/02 08:56:10;;;;;;;4.03;1.60;;;;;;;33.05;14.90;100838.91;1702777;82;26603;-55
2022/05/02 08:59:08;;;;;;;3.07;1.50;;;;;;;32.98;14.83;100841.30;1702832;82;21049;-57
2022/05/02 09:02:03;;;;;;;6.50;3.60;;;;;;;32.65;14.72;100830.95;1703268;84;21074;-55
2022/05/02 09:04:44;;;;;;;3.45;1.60;;;;;;;32.86;15.29;100822.22;1703183;84;21490;-58
2022/05/02 09:07:49;;;;;;;3.13;1.50;;;;;;;33.23;14.86;100815.92;1702490;83;21132;-56
2022/05/02 09:10:23;;;;;;;2.35;1.30;;;;;;;33.60;14.46;100810.30;1709456;82;20995;-64
2022/05/02 09:13:01;;;;;;;3.47;1.62;;;;;;;34.18;14.16;100812.03;1713546;83;21787;-56
2022/05/02 09:16:02;;;;;;;4.22;1.50;;;;;;;34.02;14.16;100807.73;1712353;82;21088;-56
2022/05/02 09:19:13;;;;;;;4.20;1.80;;;;;;;33.99;14.35;100806.49;1713223;83;21270;-56
2022/05/02 09:21:48;;;;;;;2.67;1.50;;;;;;;33.59;14.19;100814.14;1713629;83;21497;-57
2022/05/02 09:24:46;;;;;;;2.92;1.55;;;;;;;32.57;14.73;100802.62;1676813;83;21025;-56
2022/05/02 09:27:38;;;;;;;3.00;1.50;;;;;;;32.22;15.07;100796.62;1707871;83;21077;-55
2022/05/02 09:30:52;;;;;;;2.80;1.77;;;;;;;32.29;14.85;100796.72;1712979;83;21895;-55
2022/05/02 09:33:56;;;;;;;4.13;1.90;;;;;;;32.37;15.16;100792.66;1712306;83;21500;-61
2022/05/02 09:36:50;;;;;;;3.87;1.70;;;;;;;32.49;14.66;100793.41;1713238;83;20953;-63
2022/05/02 09:39:24;;;;;;;2.67;1.50;;;;;;;31.78;15.04;100793.55;1713484;83;21051;-56
2022/05/02 09:42:37;;;;;;;2.67;1.37;;;;;;;31.07;15.32;100786.80;1712173;83;21159;-64
2022/05/02 09:51:50;;;;;;;4.10;1.13;;;;;;;28.35;17.01;100792.95;1713753;83;21010;-56
2022/05/02 09:57:23;;;;;;;2.53;1.13;;;;;;;27.39;17.51;100798.30;1713714;82;21353;-57
2022/05/02 10:01:06;;;;;;;3.00;1.60;;;;;;;26.81;17.42;100804.88;1701272;83;21091;-56
2022/05/02 10:02:22;;;;;;;3.97;1.43;;;;;;;26.64;18.16;100803.14;1709392;83;21643;-55
2022/05/02 10:05:07;;;;;;;3.60;1.40;;;;;;;26.54;18.29;100795.17;1713517;83;21091;-56
2022/05/02 10:08:02;;;;;;;4.27;1.30;;;;;;;26.70;18.55;100793.98;1713364;83;21568;-58
2022/05/02 10:10:53;;;;;;;3.40;1.33;;;;;;;26.96;19.04;100788.47;1713497;83;21045;-57
2022/05/02 10:13:51;;;;;;;3.67;1.20;;;;;;;27.38;18.81;100781.96;1713775;83;21593;-56
2022/05/02 10:17:03;;;;;;;2.80;1.30;;;;;;;28.24;18.44;100779.42;1705004;83;21097;-63
2022/05/02 10:20:09;;;;;;;2.40;1.30;;;;;;;29.12;17.20;100779.77;1713178;83;21538;-63
2022/05/02 10:23:04;;;;;;;4.27;1.50;;;;;;;29.73;16.74;100769.27;1713788;83;21117;-57
2022/05/02 10:25:46;;;;;;;3.73;1.33;;;;;;;30.32;15.87;100766.74;1713110;83;21411;-56
2022/05/02 10:28:38;;;;;;;4.33;1.77;;;;;;;30.58;16.16;100763.48;1713024;82;21570;-57
2022/05/02 10:31:20;;;;;;;3.40;1.43;;;;;;;30.65;15.78;100763.83;1713036;83;21256;-57
2022/05/02 10:33:51;;;;;;;2.90;1.63;;;;;;;31.03;15.78;100752.17;1713758;83;21112;-61
2022/05/02 10:36:20;;;;;;;2.65;1.57;;;;;;;31.48;15.80;100749.37;1713047;83;21076;-60
2022/05/02 10:39:05;;;;;;;2.47;1.23;;;;;;;32.13;14.85;100749.19;1714405;82;21855;-61
2022/05/02 10:41:45;;;;;;;3.60;1.50;;;;;;;32.38;14.52;100738.14;1714163;83;21040;-58
2022/05/02 10:44:15;;;;;;;2.45;1.30;;;;;;;32.63;14.55;100744.11;1714264;83;21617;-57
2022/05/02 10:46:45;;;;;;;4.55;2.10;;;;;;;32.71;14.16;100731.72;1703009;83;21095;-60
2022/05/02 10:49:28;;;;;;;2.87;1.80;;;;;;;32.69;14.12;100734.75;1713766;83;21559;-57
2022/05/02 10:52:17;;;;;;;2.60;1.70;;;;;;;32.34;14.57;100734.50;1713374;83;21143;-57
2022/05/02 10:55:01;;;;;;;3.67;1.50;;;;;;;32.23;14.16;100734.80;1683955;85;21129;-57
2022/05/02 10:57:40;;;;;;;3.90;1.70;;;;;;;31.38;14.63;100730.81;1690109;83;21530;-57
2022/05/02 11:00:10;;;;;;;3.62;2.00;;;;;;;30.68;14.68;100733.06;1708000;83;21033;-57
2022/05/02 11:03:10;;;;;;;5.20;2.50;;;;;;;30.24;15.39;100740.58;1713628;82;21617;-64
2022/05/02 11:05:57;;;;;;;3.53;2.00;;;;;;;30.04;15.41;100733.17;1713306;83;21589;-60
2022/05/02 11:08:42;;;;;;;4.40;2.47;;;;;;;30.14;15.30;100730.80;1703680;82;21124;-56
2022/05/02 11:11:34;;;;;;;6.43;3.57;;;;;;;29.95;15.64;100719.39;1666210;85;21123;-56
2022/05/02 11:14:07;;;;;;;5.15;3.52;;;;;;;29.60;15.97;100727.09;1587896;89;21654;-56
2022/05/02 11:16:58;;;;;;;5.57;4.00;;;;;;;29.50;16.29;100721.88;1578670;90;21639;-58
2022/05/02 11:22:38;;;;;;;6.30;3.60;;;;;;;28.75;16.57;100713.00;1671348;85;21078;-62
2022/05/02 11:25:14;;;;;;;6.43;4.33;;;;;;;28.96;16.59;100712.66;1672363;85;21231;-58
2022/05/02 11:28:04;;;;;;;6.27;4.57;;;;;;;28.82;16.71;100705.90;1662049;85;20984;-59
2022/05/02 11:30:44;;;;;;;5.37;3.70;;;;;;;28.84;16.70;100705.86;1672425;85;22314;-57
2022/05/02 11:33:40;;;;;;;5.30;3.70;;;;;;;28.50;17.27;100698.66;1670407;85;21001;-58
2022/05/02 11:36:10;;;;;;;5.80;3.47;;;;;;;28.25;17.16;100701.92;1672762;85;21491;-57
2022/05/02 11:38:54;;;;;;;6.80;3.45;;;;;;;27.93;16.92;100695.16;1672493;85;21973;-57
2022/05/02 11:41:22;;;;;;;8.20;4.23;;;;;;;28.10;17.08;100690.87;1668550;85;21142;-57
2022/05/02 11:43:49;;;;;;;8.33;5.40;;;;;;;28.26;16.96;100694.16;1672487;85;21830;-56
2022/05/02 11:46:26;;;;;;;8.00;5.43;;;;;;;28.03;17.05;100690.98;1672185;85;21150;-61
2022/05/02 11:49:38;;;;;;;7.17;4.87;;;;;;;27.62;17.63;100687.48;1672019;85;21131;-63
2022/05/02 11:52:11;;;;;;;7.73;5.60;;;;;;;27.28;17.80;100686.27;1671854;85;21232;-63
2022/05/02 11:54:39;;;;;;;8.57;5.40;;;;;;;27.34;17.66;100678.41;1671377;85;21178;-63
2022/05/02 11:57:42;;;;;;;10.03;6.07;;;;;;;27.39;17.67;100669.80;1671277;85;21463;-57
2022/05/02 12:00:16;;;;;;;8.40;5.33;;;;;;;27.39;17.84;100666.33;1665363;85;21518;-63
2022/05/02 12:02:56;;;;;;;10.13;6.20;;;;;;;26.97;18.12;100671.80;1672106;85;21142;-55
2022/05/02 12:05:32;;;;;;;9.80;5.77;;;;;;;26.94;18.26;100672.38;1671705;85;21866;-56
2022/05/02 12:08:10;;;;;;;8.90;6.30;;;;;;;26.73;18.15;100677.10;1671692;85;21107;-63
2022/05/02 12:10:41;;;;;;;9.47;5.57;;;;;;;26.53;18.53;100674.60;1671884;83;21113;-55
2022/05/02 12:13:12;;;;;;;7.87;5.10;;;;;;;26.60;18.49;100669.73;1672040;85;21137;-56
2022/05/02 12:16:00;;;;;;;;;;;;;;;26.92;18.29;100665.95;1673974;85;21580;-59
2022/05/02 12:18:39;;;;;;;5.20;3.47;;;;;;;27.64;17.96;100659.86;1671613;85;21342;-58
2022/05/02 12:21:08;;;;;;;8.10;4.87;;;;;;;27.52;17.58;100657.59;1664545;85;21600;-59